sensor_id;sensor_type;location;lat;lon;timestamp;temperature;humidity
42743;DHT22;28397;44.552;-0.848;2022-08-03T00:01:27;23.20;94.10
42743;DHT22;28397;44.552;-0.848;2022-08-03T00:03:53;23.20;94.40
42743;DHT22;28397;44.552;-0.848;2022-08-03T00:06:19;23.10;94.20
42743;DHT22;28397;44.552;-0.848;2022-08-03T00:08:45;23.10;93.70
42743;DHT22;28397;44.552;-0.848;2022-08-03T00:11:10;23.10;93.50
42743;DHT22;28397;44.552;-0.848;2022-08-03T00:13:36;23.00;95.10
42743;DHT22;28397;44.552;-0.848;2022-08-03T00:16:02;22.80;95.00
42743;DHT22;28397;44.552;-0.848;2022-08-03T00:18:27;22.80;95.50
42743;DHT22;28397;44.552;-0.848;2022-08-03T00:20:53;22.80;96.10
42743;DHT22;28397;44.552;-0.848;2022-08-03T00:23:19;22.80;95.20
42743;DHT22;28397;44.552;-0.848;2022-08-03T00:25:44;22.60;96.10
42743;DHT22;28397;44.552;-0.848;2022-08-03T00:28:10;22.70;97.00
42743;DHT22;28397;44.552;-0.848;2022-08-03T00:30:36;22.70;95.50
42743;DHT22;28397;44.552;-0.848;2022-08-03T00:33:02;22.80;94.50
42743;DHT22;28397;44.552;-0.848;2022-08-03T00:35:28;22.80;95.30
42743;DHT22;28397;44.552;-0.848;2022-08-03T00:37:54;22.70;94.20
42743;DHT22;28397;44.552;-0.848;2022-08-03T00:40:20;22.70;95.30
42743;DHT22;28397;44.552;-0.848;2022-08-03T00:45:23;22.70;94.60
42743;DHT22;28397;44.552;-0.848;2022-08-03T00:47:49;22.60;95.10
42743;DHT22;28397;44.552;-0.848;2022-08-03T00:50:16;22.50;94.60
42743;DHT22;28397;44.552;-0.848;2022-08-03T00:52:43;22.50;94.70
42743;DHT22;28397;44.552;-0.848;2022-08-03T00:55:10;22.50;95.70
42743;DHT22;28397;44.552;-0.848;2022-08-03T00:57:36;22.40;95.50
42743;DHT22;28397;44.552;-0.848;2022-08-03T01:00:04;22.30;96.60
42743;DHT22;28397;44.552;-0.848;2022-08-03T01:02:30;22.20;96.90
42743;DHT22;28397;44.552;-0.848;2022-08-03T01:04:56;22.20;96.20
42743;DHT22;28397;44.552;-0.848;2022-08-03T01:07:36;22.20;97.10
42743;DHT22;28397;44.552;-0.848;2022-08-03T01:13:16;22.20;95.70
42743;DHT22;28397;44.552;-0.848;2022-08-03T01:16:10;22.20;96.30
42743;DHT22;28397;44.552;-0.848;2022-08-03T01:19:18;22.20;96.40
42743;DHT22;28397;44.552;-0.848;2022-08-03T01:25:01;21.70;99.40
42743;DHT22;28397;44.552;-0.848;2022-08-03T01:27:56;21.50;99.90
42743;DHT22;28397;44.552;-0.848;2022-08-03T01:30:34;21.70;99.70
42743;DHT22;28397;44.552;-0.848;2022-08-03T01:33:04;21.50;99.90
42743;DHT22;28397;44.552;-0.848;2022-08-03T01:38:23;21.40;99.90
42743;DHT22;28397;44.552;-0.848;2022-08-03T01:40:52;21.30;99.90
42743;DHT22;28397;44.552;-0.848;2022-08-03T01:43:22;21.30;99.90
42743;DHT22;28397;44.552;-0.848;2022-08-03T01:45:48;21.20;99.90
42743;DHT22;28397;44.552;-0.848;2022-08-03T01:48:16;21.20;99.90
42743;DHT22;28397;44.552;-0.848;2022-08-03T01:50:44;21.20;99.90
42743;DHT22;28397;44.552;-0.848;2022-08-03T01:53:14;21.40;99.90
42743;DHT22;28397;44.552;-0.848;2022-08-03T01:55:42;21.40;99.90
42743;DHT22;28397;44.552;-0.848;2022-08-03T01:58:09;21.40;99.90
42743;DHT22;28397;44.552;-0.848;2022-08-03T02:00:36;21.30;99.90
42743;DHT22;28397;44.552;-0.848;2022-08-03T02:03:06;21.10;99.90
42743;DHT22;28397;44.552;-0.848;2022-08-03T02:05:33;21.10;99.90
42743;DHT22;28397;44.552;-0.848;2022-08-03T02:08:01;21.10;99.90
42743;DHT22;28397;44.552;-0.848;2022-08-03T02:10:28;21.10;99.90
42743;DHT22;28397;44.552;-0.848;2022-08-03T02:12:58;21.10;99.90
42743;DHT22;28397;44.552;-0.848;2022-08-03T02:15:27;20.90;99.90
42743;DHT22;28397;44.552;-0.848;2022-08-03T02:17:53;21.00;99.90
42743;DHT22;28397;44.552;-0.848;2022-08-03T02:20:20;20.90;99.90
42743;DHT22;28397;44.552;-0.848;2022-08-03T02:22:46;21.00;99.90
42743;DHT22;28397;44.552;-0.848;2022-08-03T02:25:14;21.10;99.90
42743;DHT22;28397;44.552;-0.848;2022-08-03T02:27:47;21.00;99.90
42743;DHT22;28397;44.552;-0.848;2022-08-03T02:30:15;21.10;99.90
42743;DHT22;28397;44.552;-0.848;2022-08-03T02:32:43;21.20;99.90
42743;DHT22;28397;44.552;-0.848;2022-08-03T02:35:14;21.30;99.90
42743;DHT22;28397;44.552;-0.848;2022-08-03T02:37:45;21.30;99.90
42743;DHT22;28397;44.552;-0.848;2022-08-03T02:40:14;21.30;99.90
42743;DHT22;28397;44.552;-0.848;2022-08-03T02:42:41;21.30;99.90
42743;DHT22;28397;44.552;-0.848;2022-08-03T02:45:10;21.20;99.90
42743;DHT22;28397;44.552;-0.848;2022-08-03T02:47:40;21.00;99.90
42743;DHT22;28397;44.552;-0.848;2022-08-03T02:50:09;20.70;99.90
42743;DHT22;28397;44.552;-0.848;2022-08-03T02:52:36;20.70;99.90
42743;DHT22;28397;44.552;-0.848;2022-08-03T02:55:03;20.80;99.90
42743;DHT22;28397;44.552;-0.848;2022-08-03T02:57:30;20.90;99.90
42743;DHT22;28397;44.552;-0.848;2022-08-03T02:59:59;21.10;99.90
42743;DHT22;28397;44.552;-0.848;2022-08-03T03:02:25;21.10;99.90
42743;DHT22;28397;44.552;-0.848;2022-08-03T03:04:54;21.10;99.90
42743;DHT22;28397;44.552;-0.848;2022-08-03T03:07:19;21.10;99.90
42743;DHT22;28397;44.552;-0.848;2022-08-03T03:09:46;21.10;99.90
42743;DHT22;28397;44.552;-0.848;2022-08-03T03:12:13;21.10;99.90
42743;DHT22;28397;44.552;-0.848;2022-08-03T03:14:39;21.10;99.90
42743;DHT22;28397;44.552;-0.848;2022-08-03T03:17:06;21.10;99.90
42743;DHT22;28397;44.552;-0.848;2022-08-03T03:19:34;21.10;99.90
42743;DHT22;28397;44.552;-0.848;2022-08-03T03:22:01;21.00;99.90
42743;DHT22;28397;44.552;-0.848;2022-08-03T03:24:28;21.10;99.90
42743;DHT22;28397;44.552;-0.848;2022-08-03T03:26:54;21.00;99.90
42743;DHT22;28397;44.552;-0.848;2022-08-03T03:29:21;20.90;99.90
42743;DHT22;28397;44.552;-0.848;2022-08-03T03:31:47;20.80;99.90
42743;DHT22;28397;44.552;-0.848;2022-08-03T03:34:13;20.70;99.90
42743;DHT22;28397;44.552;-0.848;2022-08-03T03:36:39;20.70;99.90
42743;DHT22;28397;44.552;-0.848;2022-08-03T03:39:05;20.50;99.90
42743;DHT22;28397;44.552;-0.848;2022-08-03T03:41:31;20.60;99.90
42743;DHT22;28397;44.552;-0.848;2022-08-03T03:43:57;20.60;99.90
42743;DHT22;28397;44.552;-0.848;2022-08-03T03:46:23;20.60;99.90
42743;DHT22;28397;44.552;-0.848;2022-08-03T03:48:49;20.60;99.90
42743;DHT22;28397;44.552;-0.848;2022-08-03T03:51:15;20.60;99.90
42743;DHT22;28397;44.552;-0.848;2022-08-03T03:53:57;20.40;99.90
42743;DHT22;28397;44.552;-0.848;2022-08-03T03:56:23;20.20;99.90
42743;DHT22;28397;44.552;-0.848;2022-08-03T03:58:49;20.20;99.90
42743;DHT22;28397;44.552;-0.848;2022-08-03T04:01:15;20.20;99.90
42743;DHT22;28397;44.552;-0.848;2022-08-03T04:03:41;20.20;99.90
42743;DHT22;28397;44.552;-0.848;2022-08-03T04:06:07;20.20;99.90
42743;DHT22;28397;44.552;-0.848;2022-08-03T04:08:51;20.10;99.90
42743;DHT22;28397;44.552;-0.848;2022-08-03T04:11:53;20.10;99.90
42743;DHT22;28397;44.552;-0.848;2022-08-03T04:14:24;20.10;99.90
42743;DHT22;28397;44.552;-0.848;2022-08-03T04:16:55;20.20;99.90
42743;DHT22;28397;44.552;-0.848;2022-08-03T04:19:37;20.30;99.90
42743;DHT22;28397;44.552;-0.848;2022-08-03T04:22:08;20.10;99.90
42743;DHT22;28397;44.552;-0.848;2022-08-03T04:24:42;20.00;99.90
42743;DHT22;28397;44.552;-0.848;2022-08-03T04:27:11;20.00;99.90
42743;DHT22;28397;44.552;-0.848;2022-08-03T04:29:40;20.00;99.90
42743;DHT22;28397;44.552;-0.848;2022-08-03T04:32:07;19.90;99.90
42743;DHT22;28397;44.552;-0.848;2022-08-03T04:34:33;19.90;99.90
42743;DHT22;28397;44.552;-0.848;2022-08-03T04:37:02;19.90;99.90
42743;DHT22;28397;44.552;-0.848;2022-08-03T04:39:31;19.90;99.90
42743;DHT22;28397;44.552;-0.848;2022-08-03T04:42:01;19.90;99.90
42743;DHT22;28397;44.552;-0.848;2022-08-03T04:44:28;20.00;99.90
42743;DHT22;28397;44.552;-0.848;2022-08-03T04:46:57;20.20;99.90
42743;DHT22;28397;44.552;-0.848;2022-08-03T04:49:24;20.20;99.90
42743;DHT22;28397;44.552;-0.848;2022-08-03T04:51:51;20.30;99.90
42743;DHT22;28397;44.552;-0.848;2022-08-03T04:54:17;20.20;99.90
42743;DHT22;28397;44.552;-0.848;2022-08-03T04:56:43;20.00;99.90
42743;DHT22;28397;44.552;-0.848;2022-08-03T04:59:09;19.90;99.90
42743;DHT22;28397;44.552;-0.848;2022-08-03T05:01:36;19.90;99.90
42743;DHT22;28397;44.552;-0.848;2022-08-03T05:04:02;20.10;99.90
42743;DHT22;28397;44.552;-0.848;2022-08-03T05:06:28;20.00;99.90
42743;DHT22;28397;44.552;-0.848;2022-08-03T05:08:54;19.90;99.90
42743;DHT22;28397;44.552;-0.848;2022-08-03T05:11:20;19.80;99.90
42743;DHT22;28397;44.552;-0.848;2022-08-03T05:13:46;19.60;99.90
42743;DHT22;28397;44.552;-0.848;2022-08-03T05:16:13;19.50;99.90
42743;DHT22;28397;44.552;-0.848;2022-08-03T05:18:42;19.60;99.90
42743;DHT22;28397;44.552;-0.848;2022-08-03T05:21:09;19.50;99.90
42743;DHT22;28397;44.552;-0.848;2022-08-03T05:23:35;19.30;99.90
42743;DHT22;28397;44.552;-0.848;2022-08-03T05:26:00;19.20;99.90
42743;DHT22;28397;44.552;-0.848;2022-08-03T05:28:26;19.40;99.90
42743;DHT22;28397;44.552;-0.848;2022-08-03T05:30:52;19.40;99.90
42743;DHT22;28397;44.552;-0.848;2022-08-03T05:33:18;19.40;99.90
42743;DHT22;28397;44.552;-0.848;2022-08-03T05:35:43;19.50;99.90
42743;DHT22;28397;44.552;-0.848;2022-08-03T05:38:09;19.30;99.90
42743;DHT22;28397;44.552;-0.848;2022-08-03T05:40:35;19.20;99.90
42743;DHT22;28397;44.552;-0.848;2022-08-03T05:43:01;19.30;99.90
42743;DHT22;28397;44.552;-0.848;2022-08-03T05:45:27;19.40;99.90
42743;DHT22;28397;44.552;-0.848;2022-08-03T05:47:52;19.70;99.90
42743;DHT22;28397;44.552;-0.848;2022-08-03T05:50:19;19.70;99.90
42743;DHT22;28397;44.552;-0.848;2022-08-03T05:52:45;19.90;99.90
42743;DHT22;28397;44.552;-0.848;2022-08-03T05:55:11;19.70;99.90
42743;DHT22;28397;44.552;-0.848;2022-08-03T05:57:38;19.80;99.90
42743;DHT22;28397;44.552;-0.848;2022-08-03T06:00:05;19.80;99.90
42743;DHT22;28397;44.552;-0.848;2022-08-03T06:02:32;19.80;99.90
42743;DHT22;28397;44.552;-0.848;2022-08-03T06:04:58;19.90;99.90
42743;DHT22;28397;44.552;-0.848;2022-08-03T06:07:23;19.90;99.90
42743;DHT22;28397;44.552;-0.848;2022-08-03T06:09:49;20.00;99.90
42743;DHT22;28397;44.552;-0.848;2022-08-03T06:12:15;20.00;99.90
42743;DHT22;28397;44.552;-0.848;2022-08-03T06:14:41;20.30;99.90
42743;DHT22;28397;44.552;-0.848;2022-08-03T06:17:06;20.50;99.90
42743;DHT22;28397;44.552;-0.848;2022-08-03T06:19:32;20.80;99.90
42743;DHT22;28397;44.552;-0.848;2022-08-03T06:21:58;21.00;99.90
42743;DHT22;28397;44.552;-0.848;2022-08-03T06:24:24;21.30;99.90
42743;DHT22;28397;44.552;-0.848;2022-08-03T06:26:52;21.50;99.90
42743;DHT22;28397;44.552;-0.848;2022-08-03T06:29:19;21.70;99.90
42743;DHT22;28397;44.552;-0.848;2022-08-03T06:31:44;22.30;99.90
42743;DHT22;28397;44.552;-0.848;2022-08-03T06:34:10;22.40;99.90
42743;DHT22;28397;44.552;-0.848;2022-08-03T06:36:36;22.50;99.90
42743;DHT22;28397;44.552;-0.848;2022-08-03T06:39:03;22.90;99.90
42743;DHT22;28397;44.552;-0.848;2022-08-03T06:41:28;23.60;99.90
42743;DHT22;28397;44.552;-0.848;2022-08-03T06:43:54;24.20;99.90
42743;DHT22;28397;44.552;-0.848;2022-08-03T06:46:20;24.20;99.90
42743;DHT22;28397;44.552;-0.848;2022-08-03T06:48:47;24.40;99.90
42743;DHT22;28397;44.552;-0.848;2022-08-03T06:51:13;24.20;99.90
42743;DHT22;28397;44.552;-0.848;2022-08-03T06:53:38;25.00;99.90
42743;DHT22;28397;44.552;-0.848;2022-08-03T06:56:05;25.00;99.90
42743;DHT22;28397;44.552;-0.848;2022-08-03T06:58:31;25.00;99.70
42743;DHT22;28397;44.552;-0.848;2022-08-03T07:00:57;25.60;99.30
42743;DHT22;28397;44.552;-0.848;2022-08-03T07:03:23;25.80;99.00
42743;DHT22;28397;44.552;-0.848;2022-08-03T07:05:49;26.00;98.50
42743;DHT22;28397;44.552;-0.848;2022-08-03T07:08:16;26.60;97.80
42743;DHT22;28397;44.552;-0.848;2022-08-03T07:10:42;26.80;97.40
42743;DHT22;28397;44.552;-0.848;2022-08-03T07:13:07;26.60;97.10
42743;DHT22;28397;44.552;-0.848;2022-08-03T07:15:34;27.10;96.70
42743;DHT22;28397;44.552;-0.848;2022-08-03T07:18:00;27.30;96.80
42743;DHT22;28397;44.552;-0.848;2022-08-03T07:20:25;27.70;96.50
42743;DHT22;28397;44.552;-0.848;2022-08-03T07:22:51;28.20;95.90
42743;DHT22;28397;44.552;-0.848;2022-08-03T07:25:17;28.10;95.70
42743;DHT22;28397;44.552;-0.848;2022-08-03T07:27:43;28.40;96.10
42743;DHT22;28397;44.552;-0.848;2022-08-03T07:30:09;28.70;94.90
42743;DHT22;28397;44.552;-0.848;2022-08-03T07:32:35;29.30;94.50
42743;DHT22;28397;44.552;-0.848;2022-08-03T07:35:02;29.50;94.80
42743;DHT22;28397;44.552;-0.848;2022-08-03T07:37:28;29.70;94.70
42743;DHT22;28397;44.552;-0.848;2022-08-03T07:39:54;29.90;94.00
42743;DHT22;28397;44.552;-0.848;2022-08-03T07:42:20;29.70;94.20
42743;DHT22;28397;44.552;-0.848;2022-08-03T07:44:45;30.50;93.20
42743;DHT22;28397;44.552;-0.848;2022-08-03T07:47:11;30.40;93.00
42743;DHT22;28397;44.552;-0.848;2022-08-03T07:49:40;30.70;92.90
42743;DHT22;28397;44.552;-0.848;2022-08-03T07:52:06;31.20;92.60
42743;DHT22;28397;44.552;-0.848;2022-08-03T07:54:50;31.30;91.50
42743;DHT22;28397;44.552;-0.848;2022-08-03T07:57:16;30.80;92.80
42743;DHT22;28397;44.552;-0.848;2022-08-03T07:59:41;31.00;91.60
42743;DHT22;28397;44.552;-0.848;2022-08-03T08:02:07;30.80;91.80
42743;DHT22;28397;44.552;-0.848;2022-08-03T08:04:33;30.70;91.50
42743;DHT22;28397;44.552;-0.848;2022-08-03T08:06:59;30.50;92.10
42743;DHT22;28397;44.552;-0.848;2022-08-03T08:09:24;30.40;92.60
42743;DHT22;28397;44.552;-0.848;2022-08-03T08:11:50;30.50;92.70
42743;DHT22;28397;44.552;-0.848;2022-08-03T08:14:16;30.70;92.80
42743;DHT22;28397;44.552;-0.848;2022-08-03T08:16:41;31.00;92.30
42743;DHT22;28397;44.552;-0.848;2022-08-03T08:19:07;31.60;91.80
42743;DHT22;28397;44.552;-0.848;2022-08-03T08:21:33;31.80;91.80
42743;DHT22;28397;44.552;-0.848;2022-08-03T08:23:59;32.70;90.20
42743;DHT22;28397;44.552;-0.848;2022-08-03T08:26:24;32.80;89.60
42743;DHT22;28397;44.552;-0.848;2022-08-03T08:28:50;33.80;87.00
42743;DHT22;28397;44.552;-0.848;2022-08-03T08:31:17;34.40;86.10
42743;DHT22;28397;44.552;-0.848;2022-08-03T08:33:43;35.30;84.70
42743;DHT22;28397;44.552;-0.848;2022-08-03T08:36:08;35.30;84.20
42743;DHT22;28397;44.552;-0.848;2022-08-03T08:38:34;35.50;80.80
42743;DHT22;28397;44.552;-0.848;2022-08-03T08:41:00;35.70;80.40
42743;DHT22;28397;44.552;-0.848;2022-08-03T08:43:27;36.10;81.20
42743;DHT22;28397;44.552;-0.848;2022-08-03T08:45:53;36.10;80.30
42743;DHT22;28397;44.552;-0.848;2022-08-03T08:48:23;36.20;81.40
42743;DHT22;28397;44.552;-0.848;2022-08-03T08:50:52;37.90;78.70
42743;DHT22;28397;44.552;-0.848;2022-08-03T08:53:19;39.10;76.80
42743;DHT22;28397;44.552;-0.848;2022-08-03T08:55:46;39.70;74.70
42743;DHT22;28397;44.552;-0.848;2022-08-03T08:58:13;40.20;72.20
42743;DHT22;28397;44.552;-0.848;2022-08-03T09:00:43;40.80;70.60
42743;DHT22;28397;44.552;-0.848;2022-08-03T09:03:10;39.80;72.60
42743;DHT22;28397;44.552;-0.848;2022-08-03T09:05:36;40.50;71.00
42743;DHT22;28397;44.552;-0.848;2022-08-03T09:08:04;40.10;73.50
42743;DHT22;28397;44.552;-0.848;2022-08-03T09:10:30;40.90;70.00
42743;DHT22;28397;44.552;-0.848;2022-08-03T09:12:57;41.40;70.50
42743;DHT22;28397;44.552;-0.848;2022-08-03T09:15:25;41.00;71.00
42743;DHT22;28397;44.552;-0.848;2022-08-03T09:17:53;41.40;70.70
42743;DHT22;28397;44.552;-0.848;2022-08-03T09:20:21;41.80;71.40
42743;DHT22;28397;44.552;-0.848;2022-08-03T09:23:05;42.60;69.60
42743;DHT22;28397;44.552;-0.848;2022-08-03T09:25:39;42.20;68.50
42743;DHT22;28397;44.552;-0.848;2022-08-03T09:28:11;42.50;68.70
42743;DHT22;28397;44.552;-0.848;2022-08-03T09:30:38;43.20;66.40
42743;DHT22;28397;44.552;-0.848;2022-08-03T09:33:06;43.50;65.60
42743;DHT22;28397;44.552;-0.848;2022-08-03T09:35:32;44.20;64.40
42743;DHT22;28397;44.552;-0.848;2022-08-03T09:40:34;45.00;63.20
42743;DHT22;28397;44.552;-0.848;2022-08-03T09:43:00;46.00;60.30
42743;DHT22;28397;44.552;-0.848;2022-08-03T09:45:26;45.90;59.80
42743;DHT22;28397;44.552;-0.848;2022-08-03T09:47:52;45.60;59.10
42743;DHT22;28397;44.552;-0.848;2022-08-03T09:50:18;46.20;59.40
42743;DHT22;28397;44.552;-0.848;2022-08-03T09:52:43;46.70;57.90
42743;DHT22;28397;44.552;-0.848;2022-08-03T09:55:13;47.30;59.00
42743;DHT22;28397;44.552;-0.848;2022-08-03T09:57:39;48.10;58.10
42743;DHT22;28397;44.552;-0.848;2022-08-03T10:00:13;48.90;57.50
42743;DHT22;28397;44.552;-0.848;2022-08-03T10:02:41;49.10;57.60
42743;DHT22;28397;44.552;-0.848;2022-08-03T10:05:09;49.20;54.60
42743;DHT22;28397;44.552;-0.848;2022-08-03T10:07:46;49.30;54.40
42743;DHT22;28397;44.552;-0.848;2022-08-03T10:10:13;49.30;54.30
42743;DHT22;28397;44.552;-0.848;2022-08-03T10:12:41;50.60;54.00
42743;DHT22;28397;44.552;-0.848;2022-08-03T10:15:08;51.40;52.90
42743;DHT22;28397;44.552;-0.848;2022-08-03T10:17:35;52.10;54.30
42743;DHT22;28397;44.552;-0.848;2022-08-03T10:20:03;52.50;53.80
42743;DHT22;28397;44.552;-0.848;2022-08-03T10:22:33;53.20;53.20
42743;DHT22;28397;44.552;-0.848;2022-08-03T10:25:08;52.20;55.00
42743;DHT22;28397;44.552;-0.848;2022-08-03T10:27:40;53.00;55.50
42743;DHT22;28397;44.552;-0.848;2022-08-03T10:30:08;52.20;54.50
42743;DHT22;28397;44.552;-0.848;2022-08-03T10:32:41;52.40;55.00
42743;DHT22;28397;44.552;-0.848;2022-08-03T10:35:15;49.90;56.30
42743;DHT22;28397;44.552;-0.848;2022-08-03T10:37:44;48.40;58.80
42743;DHT22;28397;44.552;-0.848;2022-08-03T10:40:14;47.80;57.70
42743;DHT22;28397;44.552;-0.848;2022-08-03T10:42:45;47.50;57.90
42743;DHT22;28397;44.552;-0.848;2022-08-03T10:45:18;47.30;59.50
42743;DHT22;28397;44.552;-0.848;2022-08-03T10:47:48;47.30;58.90
42743;DHT22;28397;44.552;-0.848;2022-08-03T10:50:15;46.50;59.00
42743;DHT22;28397;44.552;-0.848;2022-08-03T10:55:40;45.40;59.60
42743;DHT22;28397;44.552;-0.848;2022-08-03T10:58:48;46.00;58.90
42743;DHT22;28397;44.552;-0.848;2022-08-03T11:01:15;46.10;59.30
42743;DHT22;28397;44.552;-0.848;2022-08-03T11:06:23;45.80;58.70
42743;DHT22;28397;44.552;-0.848;2022-08-03T11:11:37;45.10;59.20
42743;DHT22;28397;44.552;-0.848;2022-08-03T11:16:45;43.30;60.40
42743;DHT22;28397;44.552;-0.848;2022-08-03T11:19:14;43.70;60.30
42743;DHT22;28397;44.552;-0.848;2022-08-03T11:27:27;44.20;61.60
42743;DHT22;28397;44.552;-0.848;2022-08-03T11:35:17;44.10;60.10
42743;DHT22;28397;44.552;-0.848;2022-08-03T11:38:04;44.80;60.60
42743;DHT22;28397;44.552;-0.848;2022-08-03T11:40:39;45.50;59.10
42743;DHT22;28397;44.552;-0.848;2022-08-03T11:45:36;45.40;58.50
42743;DHT22;28397;44.552;-0.848;2022-08-03T11:48:15;45.20;58.00
42743;DHT22;28397;44.552;-0.848;2022-08-03T11:50:42;44.70;57.80
42743;DHT22;28397;44.552;-0.848;2022-08-03T11:53:14;45.10;57.90
42743;DHT22;28397;44.552;-0.848;2022-08-03T11:55:41;44.30;58.70
42743;DHT22;28397;44.552;-0.848;2022-08-03T11:58:17;42.70;58.00
42743;DHT22;28397;44.552;-0.848;2022-08-03T12:00:43;42.40;58.60
42743;DHT22;28397;44.552;-0.848;2022-08-03T12:03:14;43.40;59.70
42743;DHT22;28397;44.552;-0.848;2022-08-03T12:05:48;43.20;58.50
42743;DHT22;28397;44.552;-0.848;2022-08-03T12:08:33;42.30;57.60
42743;DHT22;28397;44.552;-0.848;2022-08-03T12:11:00;40.70;59.80
42743;DHT22;28397;44.552;-0.848;2022-08-03T12:13:44;40.30;60.00
42743;DHT22;28397;44.552;-0.848;2022-08-03T12:16:22;41.00;59.40
42743;DHT22;28397;44.552;-0.848;2022-08-03T12:19:01;41.30;59.80
42743;DHT22;28397;44.552;-0.848;2022-08-03T12:21:28;40.90;59.00
42743;DHT22;28397;44.552;-0.848;2022-08-03T12:23:59;41.30;60.50
42743;DHT22;28397;44.552;-0.848;2022-08-03T12:26:26;42.50;58.90
42743;DHT22;28397;44.552;-0.848;2022-08-03T12:28:52;42.60;59.80
42743;DHT22;28397;44.552;-0.848;2022-08-03T12:31:18;42.60;60.10
42743;DHT22;28397;44.552;-0.848;2022-08-03T12:34:04;42.20;59.00
42743;DHT22;28397;44.552;-0.848;2022-08-03T12:36:33;41.70;57.90
42743;DHT22;28397;44.552;-0.848;2022-08-03T12:39:02;41.30;58.90
42743;DHT22;28397;44.552;-0.848;2022-08-03T12:41:34;41.70;59.00
42743;DHT22;28397;44.552;-0.848;2022-08-03T12:44:01;40.20;58.50
42743;DHT22;28397;44.552;-0.848;2022-08-03T12:46:40;41.00;59.30
42743;DHT22;28397;44.552;-0.848;2022-08-03T12:49:10;41.70;60.30
42743;DHT22;28397;44.552;-0.848;2022-08-03T12:51:55;41.30;56.40
42743;DHT22;28397;44.552;-0.848;2022-08-03T12:54:27;40.40;58.20
42743;DHT22;28397;44.552;-0.848;2022-08-03T12:57:16;41.10;58.30
42743;DHT22;28397;44.552;-0.848;2022-08-03T12:59:43;41.10;57.00
42743;DHT22;28397;44.552;-0.848;2022-08-03T13:02:23;41.30;57.20
42743;DHT22;28397;44.552;-0.848;2022-08-03T13:04:51;41.20;58.30
42743;DHT22;28397;44.552;-0.848;2022-08-03T13:07:17;41.20;58.40
42743;DHT22;28397;44.552;-0.848;2022-08-03T13:09:52;40.80;59.10
42743;DHT22;28397;44.552;-0.848;2022-08-03T13:12:19;41.50;58.50
42743;DHT22;28397;44.552;-0.848;2022-08-03T13:14:48;41.10;58.30
42743;DHT22;28397;44.552;-0.848;2022-08-03T13:17:14;40.80;58.70
42743;DHT22;28397;44.552;-0.848;2022-08-03T13:19:44;40.60;59.50
42743;DHT22;28397;44.552;-0.848;2022-08-03T13:24:43;40.50;57.10
42743;DHT22;28397;44.552;-0.848;2022-08-03T13:27:09;41.50;59.10
42743;DHT22;28397;44.552;-0.848;2022-08-03T13:29:35;42.20;55.50
42743;DHT22;28397;44.552;-0.848;2022-08-03T13:32:02;41.50;57.00
42743;DHT22;28397;44.552;-0.848;2022-08-03T13:34:28;40.70;58.00
42743;DHT22;28397;44.552;-0.848;2022-08-03T13:36:54;40.80;55.60
42743;DHT22;28397;44.552;-0.848;2022-08-03T13:39:20;40.00;56.80
42743;DHT22;28397;44.552;-0.848;2022-08-03T13:41:47;40.10;57.40
42743;DHT22;28397;44.552;-0.848;2022-08-03T13:44:13;40.70;57.70
42743;DHT22;28397;44.552;-0.848;2022-08-03T13:46:39;39.80;56.90
42743;DHT22;28397;44.552;-0.848;2022-08-03T13:49:05;39.40;57.00
42743;DHT22;28397;44.552;-0.848;2022-08-03T13:51:31;39.90;57.50
42743;DHT22;28397;44.552;-0.848;2022-08-03T13:53:57;40.40;56.30
42743;DHT22;28397;44.552;-0.848;2022-08-03T13:56:25;40.30;56.00
42743;DHT22;28397;44.552;-0.848;2022-08-03T13:58:51;40.00;55.40
42743;DHT22;28397;44.552;-0.848;2022-08-03T14:01:17;39.40;54.30
42743;DHT22;28397;44.552;-0.848;2022-08-03T14:03:42;39.30;55.60
42743;DHT22;28397;44.552;-0.848;2022-08-03T14:06:08;38.80;55.00
42743;DHT22;28397;44.552;-0.848;2022-08-03T14:08:34;38.70;55.00
42743;DHT22;28397;44.552;-0.848;2022-08-03T14:11:00;39.40;56.50
42743;DHT22;28397;44.552;-0.848;2022-08-03T14:13:25;39.70;54.70
42743;DHT22;28397;44.552;-0.848;2022-08-03T14:15:51;39.60;55.00
42743;DHT22;28397;44.552;-0.848;2022-08-03T14:18:19;40.10;56.10
42743;DHT22;28397;44.552;-0.848;2022-08-03T14:20:45;39.90;54.90
42743;DHT22;28397;44.552;-0.848;2022-08-03T14:23:10;39.70;54.50
42743;DHT22;28397;44.552;-0.848;2022-08-03T14:25:37;39.60;55.20
42743;DHT22;28397;44.552;-0.848;2022-08-03T14:28:03;39.60;54.40
42743;DHT22;28397;44.552;-0.848;2022-08-03T14:30:30;39.60;55.80
42743;DHT22;28397;44.552;-0.848;2022-08-03T14:32:55;40.20;56.10
42743;DHT22;28397;44.552;-0.848;2022-08-03T14:35:21;40.20;56.00
42743;DHT22;28397;44.552;-0.848;2022-08-03T14:37:47;40.00;56.30
42743;DHT22;28397;44.552;-0.848;2022-08-03T14:40:12;40.30;56.30
42743;DHT22;28397;44.552;-0.848;2022-08-03T14:42:38;40.10;57.00
42743;DHT22;28397;44.552;-0.848;2022-08-03T14:45:04;40.10;55.50
42743;DHT22;28397;44.552;-0.848;2022-08-03T14:47:30;39.90;56.40
42743;DHT22;28397;44.552;-0.848;2022-08-03T14:49:55;39.50;56.20
42743;DHT22;28397;44.552;-0.848;2022-08-03T14:52:21;39.30;54.60
42743;DHT22;28397;44.552;-0.848;2022-08-03T14:54:47;39.00;54.70
42743;DHT22;28397;44.552;-0.848;2022-08-03T14:57:12;38.90;54.60
42743;DHT22;28397;44.552;-0.848;2022-08-03T14:59:38;39.30;57.40
42743;DHT22;28397;44.552;-0.848;2022-08-03T15:02:04;39.30;55.30
42743;DHT22;28397;44.552;-0.848;2022-08-03T15:04:29;39.30;54.90
42743;DHT22;28397;44.552;-0.848;2022-08-03T15:06:55;39.10;55.60
42743;DHT22;28397;44.552;-0.848;2022-08-03T15:09:21;39.00;56.60
42743;DHT22;28397;44.552;-0.848;2022-08-03T15:11:46;39.30;56.00
42743;DHT22;28397;44.552;-0.848;2022-08-03T15:14:12;39.20;55.80
42743;DHT22;28397;44.552;-0.848;2022-08-03T15:16:38;39.20;55.50
42743;DHT22;28397;44.552;-0.848;2022-08-03T15:19:04;39.20;57.30
42743;DHT22;28397;44.552;-0.848;2022-08-03T15:21:30;38.80;56.50
42743;DHT22;28397;44.552;-0.848;2022-08-03T15:23:55;38.70;55.60
42743;DHT22;28397;44.552;-0.848;2022-08-03T15:26:21;38.70;56.10
42743;DHT22;28397;44.552;-0.848;2022-08-03T15:28:47;39.80;61.70
42743;DHT22;28397;44.552;-0.848;2022-08-03T15:31:12;39.70;62.80
42743;DHT22;28397;44.552;-0.848;2022-08-03T15:33:38;40.10;62.70
42743;DHT22;28397;44.552;-0.848;2022-08-03T15:36:04;40.60;62.10
42743;DHT22;28397;44.552;-0.848;2022-08-03T15:38:30;40.40;63.00
42743;DHT22;28397;44.552;-0.848;2022-08-03T15:40:56;39.60;64.50
42743;DHT22;28397;44.552;-0.848;2022-08-03T15:43:23;39.50;64.90
42743;DHT22;28397;44.552;-0.848;2022-08-03T15:45:49;39.60;64.80
42743;DHT22;28397;44.552;-0.848;2022-08-03T15:48:15;38.80;65.10
42743;DHT22;28397;44.552;-0.848;2022-08-03T15:50:40;37.90;65.20
42743;DHT22;28397;44.552;-0.848;2022-08-03T15:53:06;37.50;64.90
42743;DHT22;28397;44.552;-0.848;2022-08-03T15:55:32;37.10;65.70
42743;DHT22;28397;44.552;-0.848;2022-08-03T15:57:58;37.50;65.20
42743;DHT22;28397;44.552;-0.848;2022-08-03T16:00:23;37.40;65.90
42743;DHT22;28397;44.552;-0.848;2022-08-03T16:02:49;36.90;67.30